Pagina principale
METAR-TAF:

METAR-TAF

Aeroporti :

Laupheim, Germania

latitudine: 48-13N, longitudine: 009-55E, altezza: 538 m

Osservazione

Il bollettino è stato emesso 42 minuti fa, alle 04:20 UTC
Vento calmo
Temperature 14°C
Umidità 94%
Pressione 1017 hPa
Visibilità: 6000 m

METAR: ETHL 180420Z AUTO 00000KT 6000 // ////// 14/13 Q1017 ///

Ora: 07:02 (05:02 UTC)

Previsione

Il bollettino è stato emesso 38 minuti fa, alle 04:24 UTC
Previsione valida dal 18 alle 05 UTC al 18 alle 14 UTC
Vento 3 kt da direzioni variabili
Visibilità 10 km o più
Nubi sparse ad un'altezza di 4500 ft

TAF: ETHL 180424Z 1805/1814 VRB03KT 9999 NSW SCT045

Osservazioni e previsioni meteorologiche di più di 4000 aeroporti (messaggi METAR e TAF).

Le stazioni disponibili sono rappresentate dai dischi gialli e rossi sulla carta.

Puntare il mouse per vedere il nome della stazione.

Clicca sopra per visualizzare le osservazioni e previsioni meteorologiche.

Per cambiare la mappa : fare clic sui pulsanti verdi con una croce nera per ingrandire, il pulsante verde con un trattino per diminuire, o sulla freccia verde per le mappe adiacenti.


METAR-TAF: